Time;durP1;ratioP1;P1;durP2;ratioP2;P2;SDS_P1;SDS_P2;PMS_P1;PMS_P2;Temp;Humidity;BMP_temperature;BMP_pressure;BME280_temperature;BME280_humidity;BME280_pressure;Samples;Min_cycle;Max_cycle;Signal;HPM_P1;HPM_P2
2022/11/08 00:01:33;;;;;;;65.40;21.77;;;;;;;4.57;76.21;99815.34;4946061;29;20042;-89
2022/11/08 00:04:01;;;;;;;72.40;23.00;;;;;;;4.83;76.18;99834.44;4960037;29;20505;-89
2022/11/08 00:16:00;;;;;;;75.18;22.70;;;;;;;4.57;76.52;99779.31;5006863;22;20537;-88
2022/11/08 00:18:51;;;;;;;71.07;23.15;;;;;;;4.90;76.83;99818.75;4996196;28;20514;-88
2022/11/08 00:21:17;;;;;;;72.13;22.13;;;;;;;4.90;76.45;99814.19;5016649;28;20107;-96
2022/11/08 00:23:43;;;;;;;63.63;22.23;;;;;;;4.77;76.31;99771.31;5017425;28;20399;-95
2022/11/08 00:26:09;;;;;;;67.57;22.17;;;;;;;4.95;75.99;99800.63;5017600;28;20037;-93
2022/11/08 00:28:36;;;;;;;68.47;21.75;;;;;;;4.77;76.02;99765.06;5024794;22;20069;-95
2022/11/08 00:31:05;;;;;;;71.00;22.98;;;;;;;5.07;75.77;99805.03;5013227;28;20049;-94
2022/11/08 00:33:32;;;;;;;71.78;23.30;;;;;;;4.96;75.51;99785.19;4993115;28;20052;-95
2022/11/08 00:36:01;;;;;;;75.72;23.40;;;;;;;4.64;75.93;99740.09;4976934;28;20244;-90
2022/11/08 00:38:27;;;;;;;67.38;22.20;;;;;;;4.78;76.07;99762.09;4997960;28;20042;-93
2022/11/08 00:41:43;;;;;;;68.75;22.40;;;;;;;5.06;76.32;99792.56;5002366;28;20069;-92
2022/11/08 00:47:44;;;;;;;70.63;21.70;;;;;;;4.64;76.41;99737.41;5017167;28;20045;-95
2022/11/08 00:50:10;;;;;;;62.22;21.67;;;;;;;4.76;76.61;99741.78;5056123;23;20054;-89
2022/11/08 00:52:36;;;;;;;66.03;22.27;;;;;;;4.84;76.30;99754.81;5028313;28;20041;-93
2022/11/08 00:55:02;;;;;;;63.35;21.15;;;;;;;4.77;76.47;99740.69;5052159;28;20417;-94
2022/11/08 00:57:28;;;;;;;72.83;21.20;;;;;;;4.87;76.45;99767.84;5056171;28;20506;-90
2022/11/08 01:00:08;;;;;;;79.70;24.17;;;;;;;4.49;76.66;99702.13;5047777;28;20040;-94
2022/11/08 01:02:35;;;;;;;67.10;22.05;;;;;;;4.94;76.44;99744.84;5056519;28;20071;-90
2022/11/08 01:05:02;;;;;;;79.13;23.40;;;;;;;4.87;76.25;99709.06;5042632;28;20033;-91
2022/11/08 01:08:24;;;;;;;67.78;23.23;;;;;;;5.19;75.94;99754.13;5024132;28;20414;-93
2022/11/08 01:10:51;;;;;;;64.70;21.77;;;;;;;4.82;75.96;99686.53;5029906;23;20057;-88
2022/11/08 01:13:21;;;;;;;65.20;22.27;;;;;;;4.76;76.27;99698.44;5005352;28;20037;-93
2022/11/08 01:15:48;;;;;;;63.50;20.92;;;;;;;4.68;76.30;99688.94;5056135;28;20037;-94
2022/11/08 01:18:17;;;;;;;74.53;22.90;;;;;;;4.71;76.59;99712.78;5057078;28;20040;-94
2022/11/08 01:21:09;;;;;;;68.97;21.98;;;;;;;5.02;77.00;99754.34;5040274;28;20071;-94
2022/11/08 01:23:50;;;;;;;75.47;23.15;;;;;;;4.64;77.25;99685.13;4989522;28;20278;-94
2022/11/08 01:26:19;;;;;;;71.30;23.70;;;;;;;4.99;76.82;99735.91;5018355;28;20040;-94
2022/11/08 01:28:46;;;;;;;70.90;24.10;;;;;;;4.84;76.95;99717.72;5009226;28;20040;-94
2022/11/08 01:31:37;;;;;;;63.75;23.23;;;;;;;5.10;76.80;99759.25;5014478;23;20065;-93
2022/11/08 01:34:19;;;;;;;76.20;24.45;;;;;;;4.76;76.79;99685.72;5019526;28;20054;-90
2022/11/08 01:37:35;;;;;;;67.18;22.73;;;;;;;5.23;76.70;99748.97;5038561;28;20037;-90
2022/11/08 01:40:01;;;;;;;;;;;;;;;5.29;76.47;99746.00;5002491;28;20057;-91
2022/11/08 01:43:05;;;;;;;67.03;21.77;;;;;;;5.30;76.12;99753.09;4987176;28;19925;-92
2022/11/08 01:46:15;;;;;;;62.30;21.38;;;;;;;5.09;76.68;99764.94;5005442;28;20038;-92
2022/11/08 01:49:03;;;;;;;68.93;21.48;;;;;;;4.94;77.55;99746.75;5006402;28;20041;-92
2022/11/08 01:55:51;;;;;;;73.32;21.77;;;;;;;4.66;77.77;99700.03;5017484;28;20148;-94
2022/11/08 01:58:41;;;;;;;69.55;21.25;;;;;;;4.76;78.13;99720.09;5017703;28;20041;-91
2022/11/08 02:01:22;;;;;;;70.00;22.38;;;;;;;4.59;78.42;99713.00;5006289;28;20031;-91
2022/11/08 02:04:14;;;;;;;69.70;21.80;;;;;;;4.82;78.63;99752.38;4985005;28;20133;-95
2022/11/08 02:06:43;;;;;;;63.08;20.90;;;;;;;4.54;78.72;99710.28;4978162;28;20142;-94
2022/11/08 02:09:59;;;;;;;69.13;22.20;;;;;;;4.87;78.85;99743.47;4967409;28;20047;-87
2022/11/08 02:12:45;;;;;;;67.43;21.73;;;;;;;4.71;78.51;99735.25;4933360;29;20083;-91
2022/11/08 02:15:16;;;;;;;75.00;24.50;;;;;;;4.53;78.80;99688.88;4948369;29;20043;-89
2022/11/08 02:17:45;;;;;;;80.03;23.90;;;;;;;4.87;78.85;99738.84;4913018;23;20056;31
2022/11/08 02:24:51;;;;;;;70.82;21.92;;;;;;;4.98;78.15;99731.56;4995624;28;20551;-93
2022/11/08 02:27:21;;;;;;;73.35;21.80;;;;;;;4.63;78.05;99673.47;4982704;28;20038;-95
2022/11/08 02:29:52;;;;;;;65.00;21.20;;;;;;;4.92;77.97;99705.53;4968654;28;20038;-89
2022/11/08 02:33:08;;;;;;;67.10;22.70;;;;;;;5.04;78.17;99710.75;4978549;28;20050;-89
2022/11/08 02:36:04;;;;;;;68.53;21.33;;;;;;;5.08;77.82;99709.94;4978420;28;20030;-94
2022/11/08 02:38:32;;;;;;;69.50;21.35;;;;;;;4.84;77.62;99665.44;4982163;28;20081;-89
2022/11/08 02:40:58;;;;;;;65.25;21.83;;;;;;;4.64;77.94;99653.47;4953596;28;20058;-88
2022/11/08 02:43:25;;;;;;;68.18;22.65;;;;;;;4.70;77.97;99662.38;5026805;22;20113;-89
2022/11/08 02:45:51;;;;;;;66.18;22.55;;;;;;;4.57;78.25;99658.31;5017268;28;20502;-92
2022/11/08 02:48:26;;;;;;;61.97;21.67;;;;;;;4.82;78.15;99687.34;5057044;23;20060;-89
2022/11/08 02:51:43;;;;;;;67.10;22.23;;;;;;;5.10;77.92;99706.94;5041081;23;20065;-91
2022/11/08 02:54:09;;;;;;;62.67;21.27;;;;;;;5.08;77.51;99698.28;4993671;28;20103;-89
2022/11/08 02:56:45;;;;;;;64.00;21.95;;;;;;;5.07;77.59;99686.63;5169903;23;20056;-94
2022/11/08 02:59:11;;;;;;;61.33;20.70;;;;;;;4.93;77.57;99669.22;5021030;28;20047;-95
2022/11/08 03:01:44;;;;;;;67.60;22.40;;;;;;;4.61;77.94;99631.50;5036703;23;20103;-95
2022/11/08 03:04:29;;;;;;;61.78;21.42;;;;;;;5.00;78.38;99694.19;5031725;22;20050;-96
2022/11/08 03:08:00;;;;;;;64.40;23.10;;;;;;;5.03;78.63;99682.81;5011869;28;20049;-94
2022/11/08 03:10:30;;;;;;;65.55;21.40;;;;;;;4.81;78.57;99666.78;5014327;28;20045;-94
2022/11/08 03:13:02;;;;;;;64.38;21.30;;;;;;;4.89;78.95;99678.97;5012380;28;20046;-90
2022/11/08 03:15:29;;;;;;;64.20;21.77;;;;;;;4.66;79.25;99656.69;5009062;28;20038;-87
2022/11/08 03:17:56;;;;;;;68.20;22.35;;;;;;;4.50;79.70;99648.78;5026610;28;20042;-87
2022/11/08 03:20:23;;;;;;;66.10;22.02;;;;;;;4.58;79.90;99659.13;4996347;28;20137;-94
2022/11/08 03:22:57;;;;;;;79.90;23.92;;;;;;;4.70;80.08;99675.94;4998121;28;20037;-94
2022/11/08 03:25:23;;;;;;;70.63;23.45;;;;;;;4.59;79.71;99647.19;4993000;28;20107;-93
2022/11/08 03:27:49;;;;;;;65.18;21.60;;;;;;;4.46;79.62;99622.25;5017467;28;20492;-93
2022/11/08 03:31:05;;;;;;;70.20;23.55;;;;;;;4.89;79.70;99670.84;4983984;28;20038;-90
2022/11/08 03:33:32;;;;;;;72.68;22.23;;;;;;;4.61;79.22;99616.06;4997663;28;20044;-92
2022/11/08 03:36:01;;;;;;;73.00;22.20;;;;;;;4.72;79.15;99630.44;4998270;28;20044;-92
2022/11/08 03:38:27;;;;;;;71.45;21.92;;;;;;;4.65;79.45;99624.47;5012530;28;20056;-95
2022/11/08 03:43:48;;;;;;;64.00;21.50;;;;;;;4.36;80.08;99597.84;5009300;23;20043;-95
2022/11/08 03:46:18;;;;;;;67.25;22.38;;;;;;;4.73;80.23;99645.63;4994137;28;20046;-95
2022/11/08 03:48:45;;;;;;;67.00;23.92;;;;;;;4.73;80.46;99637.50;4985109;23;20056;-96
2022/11/08 03:51:11;;;;;;;72.05;24.08;;;;;;;4.79;79.88;99633.72;4996617;28;20050;-94
2022/11/08 03:53:37;;;;;;;69.88;22.05;;;;;;;4.98;79.76;99660.31;5015545;28;20042;-91
2022/11/08 03:56:28;;;;;;;69.40;22.83;;;;;;;5.03;79.77;99663.03;4997451;28;20048;-93
2022/11/08 03:58:54;;;;;;;62.45;21.20;;;;;;;4.80;79.64;99620.97;4997164;28;20040;-94
2022/11/08 04:01:20;;;;;;;70.65;21.92;;;;;;;4.87;79.67;99630.50;5011988;28;20045;-94
2022/11/08 04:03:46;;;;;;;64.50;22.00;;;;;;;5.11;79.68;99659.81;5018832;28;20036;-91
2022/11/08 04:06:12;;;;;;;67.30;22.48;;;;;;;5.04;79.47;99624.84;5031033;22;20053;-92
2022/11/08 04:15:38;;;;;;;60.67;21.98;;;;;;;4.65;79.20;99573.03;5028283;22;20498;-93
2022/11/08 04:22:33;;;;;;;63.63;20.85;;;;;;;5.02;79.77;99662.22;5019429;23;20068;-93
2022/11/08 04:24:59;;;;;;;67.88;21.52;;;;;;;4.65;79.97;99616.34;5011962;23;20065;-91
2022/11/08 04:27:34;;;;;;;65.75;21.90;;;;;;;4.56;80.35;99604.41;5005663;23;20805;-93
2022/11/08 04:30:00;;;;;;;63.38;21.10;;;;;;;4.75;79.85;99610.97;5026607;22;20124;-93
2022/11/08 04:33:32;;;;;;;58.65;20.92;;;;;;;5.20;79.56;99669.03;5028910;28;20128;-92
2022/11/08 04:36:35;;;;;;;60.42;21.80;;;;;;;5.23;79.25;99656.81;5017263;28;20069;-90
2022/11/08 04:39:16;;;;;;;60.47;20.42;;;;;;;4.78;79.38;99569.00;5033021;28;20128;-85
2022/11/08 04:41:42;;;;;;;64.70;19.80;;;;;;;5.28;79.44;99627.03;5031409;28;20139;-88
2022/11/08 04:44:09;;;;;;;52.58;20.80;;;;;;;5.25;79.08;99633.81;5036637;28;20506;-90
2022/11/08 04:46:35;;;;;;;55.22;21.85;;;;;;;5.13;78.72;99609.69;5036580;28;20053;-93
2022/11/08 04:49:01;;;;;;;55.93;21.00;;;;;;;4.97;78.97;99602.63;5036881;28;20033;-96
2022/11/08 04:51:32;;;;;;;50.55;19.77;;;;;;;5.24;79.21;99640.31;5038336;28;20041;-90
2022/11/08 04:54:00;;;;;;;54.15;19.88;;;;;;;5.23;78.91;99633.28;5012132;28;20047;-94
2022/11/08 04:56:28;;;;;;;59.03;20.15;;;;;;;4.95;78.94;99575.78;5041050;28;20048;-88
2022/11/08 04:58:57;;;;;;;56.65;20.08;;;;;;;5.19;79.15;99610.47;5053157;28;20037;-93
2022/11/08 05:01:51;;;;;;;53.78;19.42;;;;;;;5.27;79.16;99636.25;5023589;28;20109;-91
2022/11/08 05:07:08;;;;;;;53.95;19.45;;;;;;;5.02;79.96;99628.91;5015653;28;20065;-94
2022/11/08 05:12:55;;;;;;;54.25;19.35;;;;;;;5.14;79.46;99622.16;5036516;23;21306;-93
2022/11/08 05:16:01;;;;;;;48.05;19.42;;;;;;;4.99;79.24;99592.31;5012059;28;20502;-95
2022/11/08 05:18:29;;;;;;;54.22;19.95;;;;;;;5.09;79.43;99603.16;5013782;28;20529;-93
2022/11/08 05:26:12;;;;;;;47.20;18.35;;;;;;;5.22;79.80;99642.47;5031386;28;20648;-90
2022/11/08 05:29:43;;;;;;;51.05;18.02;;;;;;;5.24;80.01;99628.66;5003215;28;20049;-93
2022/11/08 05:32:37;;;;;;;44.25;18.17;;;;;;;5.27;80.20;99633.53;5025480;28;20071;-94
2022/11/08 05:35:20;;;;;;;48.92;19.88;;;;;;;5.11;80.00;99609.13;5005207;28;20042;-93
2022/11/08 05:37:50;;;;;;;54.20;19.80;;;;;;;4.94;80.24;99576.06;5020363;28;20037;-94
2022/11/08 05:40:31;;;;;;;49.03;19.17;;;;;;;4.90;80.56;99581.22;4988749;28;20068;-92
2022/11/08 05:43:23;;;;;;;54.28;20.77;;;;;;;5.20;80.57;99620.25;5018618;28;20116;-90
2022/11/08 05:45:58;;;;;;;56.35;22.42;;;;;;;5.02;80.57;99591.78;5018163;28;20063;-89
2022/11/08 05:48:50;;;;;;;60.50;21.95;;;;;;;5.35;80.33;99622.16;4987882;28;20449;-91
2022/11/08 05:51:19;;;;;;;59.05;21.20;;;;;;;5.06;80.07;99579.31;5019049;28;20111;-94
2022/11/08 05:54:01;;;;;;;56.63;20.75;;;;;;;4.95;80.08;99545.97;5040079;28;20056;-93
2022/11/08 05:56:47;;;;;;;54.45;19.45;;;;;;;5.10;80.08;99561.44;5019758;28;20091;-93
2022/11/08 05:59:13;;;;;;;54.40;19.52;;;;;;;5.53;79.78;99620.78;4922784;29;20066;-88
2022/11/08 06:01:42;;;;;;;47.30;19.30;;;;;;;5.49;79.40;99619.72;4955857;29;20046;-94
2022/11/08 06:04:36;;;;;;;46.78;18.35;;;;;;;5.42;79.61;99607.22;4929532;29;20046;-94
2022/11/08 06:07:14;;;;;;;49.83;19.33;;;;;;;5.29;79.49;99579.88;4908399;29;20043;-92
2022/11/08 06:09:40;;;;;;;52.90;19.20;;;;;;;5.43;79.78;99610.78;4937963;29;20510;-89
2022/11/08 06:12:07;;;;;;;56.15;19.52;;;;;;;5.45;79.61;99599.66;4938994;29;20135;-91
2022/11/08 06:14:34;;;;;;;50.67;18.08;;;;;;;5.30;79.80;99576.09;4935291;29;20051;-91
2022/11/08 06:17:01;;;;;;;56.60;19.77;;;;;;;5.17;79.61;99555.75;4923041;29;20051;-92
2022/11/08 06:19:27;;;;;;;47.83;19.50;;;;;;;5.42;79.98;99599.09;4949062;29;20035;-89
2022/11/08 06:21:53;;;;;;;44.83;17.95;;;;;;;5.35;80.10;99601.28;4933443;29;20196;-92
2022/11/08 06:24:20;;;;;;;54.15;19.05;;;;;;;5.27;80.27;99573.91;4956652;28;20105;-87
2022/11/08 06:27:14;;;;;;;50.08;19.38;;;;;;;5.53;79.94;99599.94;4942113;28;20425;-92
2022/11/08 06:29:41;;;;;;;45.75;18.08;;;;;;;5.34;79.89;99575.25;4960447;28;20124;-92
2022/11/08 06:32:09;;;;;;;52.53;18.05;;;;;;;5.50;79.74;99602.38;4948175;28;20509;-89
2022/11/08 06:34:36;;;;;;;49.10;18.00;;;;;;;5.27;79.86;99563.88;4974205;28;20150;-96
2022/11/08 06:37:47;;;;;;;52.35;17.17;;;;;;;5.47;80.45;99592.88;5052374;28;20065;-89
2022/11/08 06:40:14;;;;;;;51.88;19.40;;;;;;;5.33;80.14;99560.09;5053921;28;20041;-94
2022/11/08 06:42:40;;;;;;;48.90;17.90;;;;;;;5.57;80.17;99594.78;5028457;28;20044;-93
2022/11/08 06:45:06;;;;;;;48.28;19.70;;;;;;;5.37;79.74;99558.44;5041069;28;20578;-91
2022/11/08 06:47:32;;;;;;;51.30;19.53;;;;;;;5.34;79.83;99548.16;5063993;28;20041;-95
2022/11/08 06:49:58;;;;;;;50.75;20.58;;;;;;;5.48;79.90;99577.41;5043414;28;20095;-93
2022/11/08 06:52:24;;;;;;;47.13;18.95;;;;;;;5.58;79.75;99585.53;5035736;28;20045;-91
2022/11/08 06:54:52;;;;;;;53.33;20.08;;;;;;;5.48;80.07;99578.22;4998811;28;20141;-92
2022/11/08 06:57:18;;;;;;;52.70;20.05;;;;;;;5.57;79.85;99589.34;4994857;28;20088;-89
2022/11/08 06:59:44;;;;;;;52.72;20.73;;;;;;;5.31;79.95;99558.72;5001365;28;20503;-92
2022/11/08 07:02:10;;;;;;;73.43;29.45;;;;;;;5.27;80.40;99544.09;4976965;28;20056;-92
2022/11/08 07:04:36;;;;;;;55.45;22.05;;;;;;;5.45;79.94;99569.81;4980416;28;20137;-90
2022/11/08 07:07:02;;;;;;;63.10;23.13;;;;;;;5.52;80.24;99584.72;4977866;28;20061;-91
2022/11/08 07:09:29;;;;;;;51.28;16.85;;;;;;;5.54;80.15;99595.31;4990162;28;20058;-88
2022/11/08 07:11:55;;;;;;;59.80;21.43;;;;;;;5.46;80.21;99557.88;4993220;28;20046;-87
2022/11/08 07:14:21;;;;;;;52.60;19.42;;;;;;;5.70;80.22;99594.22;4976331;28;20077;-90
2022/11/08 07:16:50;;;;;;;57.13;21.92;;;;;;;5.77;80.03;99599.34;4990965;28;20077;-84
2022/11/08 07:19:21;;;;;;;52.10;18.60;;;;;;;5.71;80.02;99589.59;5009251;28;20430;-91
2022/11/08 07:21:47;;;;;;;58.25;20.75;;;;;;;5.59;79.84;99560.84;4997203;28;20404;-90
2022/11/08 07:24:25;;;;;;;59.50;22.58;;;;;;;5.83;79.57;99601.78;4982469;28;20400;-87
2022/11/08 07:26:54;;;;;;;59.30;19.50;;;;;;;5.50;79.52;99553.56;4983272;28;20041;-90
2022/11/08 07:29:22;;;;;;;;;;;;;;;5.75;79.89;99601.50;4993846;28;20052;-86
2022/11/08 07:31:48;;;;;;;45.13;18.42;;;;;;;5.59;79.88;99562.75;5000360;28;20521;-91
2022/11/08 07:34:16;;;;;;;53.85;19.50;;;;;;;5.69;79.78;99586.31;5008606;28;20042;-86
2022/11/08 07:36:47;;;;;;;49.47;17.90;;;;;;;5.75;79.98;99572.47;5011907;28;20050;-90
2022/11/08 07:39:16;;;;;;;51.38;18.45;;;;;;;5.78;79.64;99565.69;5012683;28;20095;-86
2022/11/08 07:41:43;;;;;;;50.15;19.00;;;;;;;5.82;79.72;99578.44;5055810;28;20049;-88
2022/11/08 07:44:12;;;;;;;50.87;18.70;;;;;;;5.73;79.55;99560.28;5063987;28;20040;-86
2022/11/08 07:46:38;;;;;;;48.50;19.52;;;;;;;5.65;79.65;99546.19;5044141;28;20044;-89
2022/11/08 07:49:10;;;;;;;47.45;18.52;;;;;;;5.80;79.34;99553.50;5053693;28;20044;-91
2022/11/08 07:51:36;;;;;;;41.63;18.08;;;;;;;6.01;79.44;99580.59;5038893;28;20041;-92
2022/11/08 07:54:03;;;;;;;47.58;18.10;;;;;;;6.01;79.35;99580.59;5036137;28;20047;-86
2022/11/08 07:56:29;;;;;;;47.08;18.13;;;;;;;5.81;79.50;99555.13;5042399;28;20107;-92
2022/11/08 07:58:55;;;;;;;49.72;19.90;;;;;;;5.95;79.63;99562.69;5037460;28;20123;-91
2022/11/08 08:01:22;;;;;;;46.05;19.00;;;;;;;5.85;79.52;99545.31;5046053;28;20092;-90
2022/11/08 08:03:48;;;;;;;54.25;19.05;;;;;;;6.09;79.44;99569.16;5064824;28;20036;-91
2022/11/08 08:06:14;;;;;;;45.50;17.00;;;;;;;6.15;79.32;99573.47;5049900;28;20063;-92
2022/11/08 08:08:44;;;;;;;46.40;18.17;;;;;;;5.91;79.20;99537.19;5050488;28;20040;-93
2022/11/08 08:11:14;;;;;;;33.90;14.73;;;;;;;5.88;79.33;99543.97;5070457;28;20048;-92
2022/11/08 08:13:40;;;;;;;40.15;17.73;;;;;;;6.04;79.33;99550.19;5031216;28;20042;-95
2022/11/08 08:16:07;;;;;;;40.38;16.98;;;;;;;6.16;79.20;99561.56;5023596;28;20048;-90
2022/11/08 08:18:35;;;;;;;41.78;17.45;;;;;;;6.23;79.30;99564.78;5028074;28;20033;-91
2022/11/08 08:21:26;;;;;;;44.90;18.27;;;;;;;6.30;79.14;99567.19;5026994;28;20080;-90
2022/11/08 08:23:55;;;;;;;36.70;16.08;;;;;;;6.36;79.25;99568.81;5039802;28;20048;-91
2022/11/08 08:26:24;;;;;;;42.53;18.58;;;;;;;6.24;78.87;99527.59;5005240;28;20068;-92
2022/11/08 08:28:50;;;;;;;39.35;18.23;;;;;;;6.43;79.08;99557.63;5051311;28;20467;-92
2022/11/08 08:31:17;;;;;;;38.03;15.88;;;;;;;6.24;78.87;99530.28;5024529;28;20037;-93
2022/11/08 08:33:44;;;;;;;36.83;15.88;;;;;;;6.29;78.97;99530.25;5043701;28;20091;-93
2022/11/08 08:36:10;;;;;;;37.28;16.50;;;;;;;6.26;78.94;99528.94;5042574;28;20063;-91
2022/11/08 08:38:36;;;;;;;37.95;16.02;;;;;;;6.18;78.91;99526.78;5029363;28;20041;-92
2022/11/08 08:41:07;;;;;;;35.95;15.77;;;;;;;6.17;79.17;99521.66;5016512;28;20068;-90
2022/11/08 08:43:36;;;;;;;43.22;16.63;;;;;;;6.00;79.27;99500.28;5049650;28;20045;-93
2022/11/08 08:46:27;;;;;;;33.05;13.75;;;;;;;6.23;79.45;99553.13;5049723;28;20044;-91
2022/11/08 08:48:53;;;;;;;39.90;16.75;;;;;;;5.99;79.47;99504.88;5019248;28;20095;-91
2022/11/08 08:51:20;;;;;;;36.35;15.18;;;;;;;6.08;79.44;99529.53;5019156;28;20048;-91
2022/11/08 08:53:46;;;;;;;40.35;17.05;;;;;;;6.24;79.49;99533.00;5030959;28;20457;-91
2022/11/08 08:56:38;;;;;;;29.73;14.98;;;;;;;6.38;79.27;99553.03;5035493;28;20932;-94
2022/11/08 08:59:29;;;;;;;31.65;14.63;;;;;;;6.41;78.83;99538.09;5046823;28;20683;-91
2022/11/08 09:02:04;;;;;;;32.95;13.77;;;;;;;6.41;78.68;99546.22;5036805;28;20573;-93
2022/11/08 09:04:31;;;;;;;31.85;14.25;;;;;;;6.35;79.15;99557.09;5020316;28;20136;-93
2022/11/08 09:06:57;;;;;;;39.25;17.33;;;;;;;6.30;79.21;99550.91;5014528;28;20067;-86
2022/11/08 09:09:24;;;;;;;44.60;15.27;;;;;;;6.19;79.29;99530.31;5039619;28;20076;-92
2022/11/08 09:11:50;;;;;;;33.33;13.75;;;;;;;6.05;79.50;99525.47;5048752;28;20045;-92
2022/11/08 09:14:16;;;;;;;33.28;15.48;;;;;;;6.07;79.88;99531.44;5023957;28;20076;-93
2022/11/08 09:16:56;;;;;;;34.40;14.48;;;;;;;6.11;79.99;99518.94;5048106;28;20048;-91
2022/11/08 09:19:35;;;;;;;32.15;15.68;;;;;;;6.27;79.83;99546.84;5047502;28;20032;-93
2022/11/08 09:22:01;;;;;;;34.10;13.40;;;;;;;6.11;79.68;99529.81;5066660;28;20553;-93
2022/11/08 09:24:28;;;;;;;35.35;15.18;;;;;;;6.15;80.13;99518.38;5050225;28;20119;-94
2022/11/08 09:27:02;;;;;;;36.30;15.13;;;;;;;6.10;79.79;99494.81;5028202;28;20049;-91
2022/11/08 09:29:32;;;;;;;36.08;14.63;;;;;;;6.18;79.90;99496.94;5052097;28;20075;-93
2022/11/08 09:31:59;;;;;;;34.97;14.85;;;;;;;6.33;79.52;99523.19;5040284;28;20037;-87
2022/11/08 09:34:28;;;;;;;32.63;14.50;;;;;;;6.16;79.78;99495.56;5043379;28;20059;-94
2022/11/08 09:36:55;;;;;;;37.05;16.13;;;;;;;6.17;80.31;99497.22;5044977;28;20045;-93
2022/11/08 09:39:22;;;;;;;30.35;13.65;;;;;;;6.37;80.27;99529.69;5050540;28;20037;-91
2022/11/08 09:42:15;;;;;;;36.25;14.95;;;;;;;6.49;79.92;99527.44;5049791;28;20021;-95
2022/11/08 09:45:20;;;;;;;36.75;16.52;;;;;;;6.31;79.37;99482.75;5054530;28;20033;-91
2022/11/08 09:48:06;;;;;;;34.05;14.15;;;;;;;6.35;79.35;99497.38;5061581;28;20067;-92
2022/11/08 09:50:38;;;;;;;37.63;15.07;;;;;;;6.28;79.51;99494.16;5034983;28;20049;-89
2022/11/08 09:53:12;;;;;;;39.72;15.75;;;;;;;6.35;79.65;99494.66;5020729;28;20049;-95
2022/11/08 09:55:53;;;;;;;36.03;16.10;;;;;;;6.40;79.88;99499.25;5059609;28;20045;-88
2022/11/08 09:58:29;;;;;;;36.47;15.32;;;;;;;6.48;79.47;99519.56;5055818;28;20040;-90
2022/11/08 10:01:01;;;;;;;36.83;14.45;;;;;;;6.40;79.62;99504.69;5065677;28;20099;-93
2022/11/08 10:03:28;;;;;;;36.88;14.57;;;;;;;6.41;79.84;99508.22;5072381;28;20076;-95
2022/11/08 10:06:33;;;;;;;37.30;16.00;;;;;;;6.49;79.62;99522.03;5057879;28;20045;-88
2022/11/08 10:09:49;;;;;;;36.22;16.13;;;;;;;6.34;79.55;99486.81;5037880;28;20056;-88
2022/11/08 10:12:38;;;;;;;32.88;14.73;;;;;;;6.58;79.66;99514.88;5039321;28;20093;-87
2022/11/08 10:15:40;;;;;;;33.10;14.05;;;;;;;6.51;79.62;99516.28;5054994;28;20064;-89
2022/11/08 10:18:28;;;;;;;37.88;15.02;;;;;;;6.57;79.54;99513.25;5041230;28;20048;-92
2022/11/08 10:21:07;;;;;;;33.45;14.10;;;;;;;6.57;79.54;99504.31;5049699;28;20037;-91
2022/11/08 10:23:42;;;;;;;29.90;13.30;;;;;;;6.51;79.57;99498.09;5052204;28;20049;-92
2022/11/08 10:26:24;;;;;;;27.58;13.30;;;;;;;6.50;79.65;99495.66;5039746;28;20045;-90
2022/11/08 10:29:16;;;;;;;32.90;13.50;;;;;;;6.27;79.88;99476.25;5051608;28;20209;-93
2022/11/08 10:31:51;;;;;;;33.47;13.18;;;;;;;6.48;80.06;99508.72;5056400;28;20050;-93
2022/11/08 10:34:25;;;;;;;29.20;13.73;;;;;;;6.44;79.79;99508.47;5051154;28;20043;-93
2022/11/08 10:36:59;;;;;;;33.78;13.75;;;;;;;6.08;80.11;99458.97;5056498;28;20041;-85
2022/11/08 10:39:37;;;;;;;30.48;13.75;;;;;;;6.07;80.52;99449.22;5052514;28;20051;-92
2022/11/08 10:42:11;;;;;;;34.00;12.52;;;;;;;6.49;80.13;99505.72;5046965;28;20041;-85
2022/11/08 10:44:40;;;;;;;26.45;11.63;;;;;;;6.31;79.85;99461.03;5052075;28;20037;-86
2022/11/08 10:47:15;;;;;;;35.13;13.18;;;;;;;6.59;79.96;99504.84;5042656;28;20080;-87
2022/11/08 10:49:44;;;;;;;29.20;12.32;;;;;;;6.16;79.47;99446.72;5046647;28;20041;-91
2022/11/08 10:52:10;;;;;;;24.83;11.57;;;;;;;6.65;79.58;99508.31;5042667;28;20045;-86
2022/11/08 10:55:07;;;;;;;27.52;12.18;;;;;;;6.58;79.61;99512.16;5043578;28;20057;-87
2022/11/08 10:57:59;;;;;;;24.95;11.15;;;;;;;6.62;79.77;99495.31;5025742;28;20040;-89
2022/11/08 11:00:49;;;;;;;22.60;10.57;;;;;;;6.53;79.58;99501.34;5025767;28;20388;-87
2022/11/08 11:03:27;;;;;;;24.10;11.25;;;;;;;6.29;79.68;99465.09;5037647;28;20041;-88
2022/11/08 11:06:05;;;;;;;23.48;10.32;;;;;;;6.35;79.87;99483.78;5036331;28;20062;-89
2022/11/08 11:08:32;;;;;;;21.00;10.63;;;;;;;6.17;79.75;99441.03;5054065;28;20048;-88
2022/11/08 11:11:25;;;;;;;19.00;9.07;;;;;;;6.55;79.72;99495.63;5023048;28;20042;-91
2022/11/08 11:14:12;;;;;;;20.27;9.45;;;;;;;6.52;79.53;99498.91;5016803;28;20049;-92
2022/11/08 11:17:14;;;;;;;20.25;8.75;;;;;;;6.38;79.89;99487.06;5036971;28;20099;-92
2022/11/08 11:19:55;;;;;;;20.02;10.50;;;;;;;6.47;80.24;99490.81;5014817;28;20109;-89
2022/11/08 11:22:29;;;;;;;16.67;9.05;;;;;;;6.22;80.22;99448.31;5039912;28;20037;-88
2022/11/08 11:25:12;;;;;;;21.10;8.95;;;;;;;6.46;79.97;99483.75;5030717;28;20048;-88
2022/11/08 11:27:41;;;;;;;22.23;9.40;;;;;;;6.35;80.15;99456.63;5045869;28;20029;-92
2022/11/08 11:30:26;;;;;;;18.50;9.02;;;;;;;6.59;80.22;99485.84;5040562;28;20053;-88
2022/11/08 11:33:06;;;;;;;20.98;8.77;;;;;;;6.63;79.95;99481.47;5036585;28;20095;-88
2022/11/08 11:35:48;;;;;;;16.67;8.38;;;;;;;6.67;80.08;99479.78;5020611;28;20479;-90
2022/11/08 11:38:47;;;;;;;19.55;9.27;;;;;;;6.67;80.05;99482.50;5038584;28;20478;-88
2022/11/08 11:41:44;;;;;;;21.65;9.93;;;;;;;6.37;79.98;99436.56;5022710;28;20049;-88
2022/11/08 11:44:37;;;;;;;21.08;9.68;;;;;;;6.70;80.17;99476.50;5034253;28;20044;-89
2022/11/08 11:47:29;;;;;;;20.10;9.05;;;;;;;6.73;79.86;99475.94;5003348;28;20042;-92
2022/11/08 11:50:01;;;;;;;18.05;9.20;;;;;;;6.41;79.67;99445.75;5030170;28;20103;-91
2022/11/08 11:52:30;;;;;;;22.42;9.63;;;;;;;6.65;80.01;99465.66;5034830;28;20052;-88
2022/11/08 11:54:56;;;;;;;17.75;8.65;;;;;;;6.68;79.90;99475.16;5037937;28;20040;-88
2022/11/08 11:57:52;;;;;;;27.67;9.23;;;;;;;6.66;80.16;99480.91;5045960;28;20506;-88
2022/11/08 12:00:18;;;;;;;17.77;8.82;;;;;;;6.31;80.04;99425.72;5051342;28;20628;-90
2022/11/08 12:03:49;;;;;;;17.85;9.05;;;;;;;6.66;80.05;99480.91;5040315;28;20565;-88
2022/11/08 12:06:38;;;;;;;19.20;8.98;;;;;;;6.75;79.79;99489.22;5027559;28;20057;-87
2022/11/08 12:09:19;;;;;;;17.20;7.78;;;;;;;6.82;79.80;99489.72;5014093;28;20537;-91
2022/11/08 12:12:04;;;;;;;23.25;8.68;;;;;;;6.48;79.65;99449.78;5001506;28;20167;-93
2022/11/08 12:15:11;;;;;;;23.40;8.45;;;;;;;6.58;79.61;99470.63;5002790;28;20054;-92
2022/11/08 12:18:15;;;;;;;19.00;8.38;;;;;;;6.67;80.12;99477.06;4970978;28;20450;-87
2022/11/08 12:21:14;;;;;;;25.25;8.57;;;;;;;6.66;79.75;99475.47;5037547;28;20126;-93
2022/11/08 12:23:49;;;;;;;15.98;7.82;;;;;;;6.66;79.80;99483.63;5018946;28;20108;-91
2022/11/08 12:26:43;;;;;;;16.48;8.57;;;;;;;6.68;79.75;99486.03;5020306;28;20046;-92
2022/11/08 12:29:43;;;;;;;15.55;7.78;;;;;;;6.52;79.97;99469.84;4982329;28;20041;-94
2022/11/08 12:32:35;;;;;;;14.57;7.60;;;;;;;6.63;80.24;99489.59;5037566;28;20040;-92
2022/11/08 12:35:11;;;;;;;15.80;7.63;;;;;;;6.46;79.76;99462.03;5017130;28;20045;-89
2022/11/08 12:38:01;;;;;;;19.27;7.97;;;;;;;6.61;79.76;99486.34;5001626;28;20463;-88
2022/11/08 12:40:39;;;;;;;21.52;9.52;;;;;;;6.62;80.24;99490.69;5003537;28;20103;-91
2022/11/08 12:43:11;;;;;;;19.58;9.77;;;;;;;6.62;79.90;99493.41;5023120;28;20502;-93
2022/11/08 12:45:56;;;;;;;18.85;9.02;;;;;;;6.70;79.97;99481.94;5010612;28;20053;-85
2022/11/08 12:49:02;;;;;;;18.52;8.13;;;;;;;6.68;79.98;99497.69;5048556;28;20519;-89
2022/11/08 12:52:03;;;;;;;14.35;8.05;;;;;;;6.71;79.95;99496.34;5037006;28;20059;-89
2022/11/08 12:54:47;;;;;;;15.65;7.22;;;;;;;6.37;79.71;99450.94;5050826;28;20083;-91
2022/11/08 12:57:26;;;;;;;14.60;6.70;;;;;;;6.32;79.94;99448.25;5043662;28;20084;-91
2022/11/08 13:00:42;;;;;;;14.93;6.97;;;;;;;6.66;80.31;99493.66;5074312;28;20052;-87